| time (UTC) | temp F | wind direction | speed MPH | gust MPH | rain 1hr in | rain 24hr in | rain mn in | humidity % | barometer mb |
| 20260505200604 | 51 | 325 | 2.0 | 3.0 | 0.00 | 0.00 | 0.00 | 3 | 1011.0 |
| 20260505200105 | 51 | 16 | 1.0 | 9.0 | 0.00 | 0.00 | 0.00 | 3 | 1011.0 |
| 20260505190604 | 51 | 355 | 1.0 | 6.0 | 0.00 | 0.00 | 0.00 | 3 | 1010.7 |
| 20260505190105 | 51 | 344 | 2.0 | 10.0 | 0.00 | 0.00 | 0.00 | 3 | 1010.7 |
| 20260505180604 | 51 | 325 | 5.0 | 9.0 | 0.00 | 0.00 | 0.00 | 3 | 1010.3 |
| 20260505180108 | 51 | 330 | 3.0 | 12.0 | 0.00 | 0.00 | 0.00 | 3 | 1010.3 |
| 20260505170604 | 51 | 328 | 6.0 | 12.0 | 0.00 | 0.00 | 0.00 | 3 | 1010.5 |
| 20260505170106 | 51 | 318 | 7.0 | 14.0 | 0.00 | 0.00 | 0.00 | 3 | 1010.4 |
| 20260505160604 | 51 | 327 | 4.0 | 12.0 | 0.00 | 0.02 | 0.00 | 3 | 1010.5 |
| 20260505160105 | 51 | 310 | 6.0 | 13.0 | 0.00 | 0.02 | 0.00 | 3 | 1010.5 |
| 20260505150603 | 51 | 330 | 5.0 | 12.0 | 0.00 | 0.02 | 0.00 | 3 | 1010.6 |
| 20260505150105 | 51 | 325 | 6.0 | 15.0 | 0.00 | 0.02 | 0.00 | 3 | 1010.7 |
| 20260505140604 | 51 | 332 | 4.0 | 14.0 | 0.00 | 0.02 | 0.00 | 3 | 1010.9 |
| 20260505130106 | 51 | 336 | 3.0 | 14.0 | 0.00 | 0.02 | 0.00 | 3 | 1011.2 |
| 20260505120604 | 51 | 342 | 6.0 | 13.0 | 0.00 | 0.02 | 0.00 | 3 | 1011.3 |
| 20260505120105 | 51 | 332 | 5.0 | 12.0 | 0.00 | 0.02 | 0.00 | 3 | 1011.3 |
| 20260505110604 | 51 | 331 | 3.0 | 10.0 | 0.00 | 0.02 | 0.00 | 3 | 1011.4 |
| 20260505110105 | 51 | 307 | 2.0 | 12.0 | 0.00 | 0.02 | 0.00 | 3 | 1011.5 |
| 20260505100605 | 51 | 333 | 3.0 | 8.0 | 0.00 | 0.02 | 0.00 | 3 | 1011.9 |
| 20260505100106 | 51 | 337 | 1.0 | 8.0 | 0.00 | 0.02 | 0.00 | 3 | 1011.9 |
| 20260505090603 | 51 | 356 | 2.0 | 7.0 | 0.00 | 0.02 | 0.00 | 3 | 1012.0 |
| 20260505090104 | 51 | 43 | 2.0 | 10.0 | 0.00 | 0.02 | 0.00 | 3 | 1011.9 |
| 20260505080603 | 51 | 334 | 2.0 | 3.0 | 0.00 | 0.02 | 0.00 | 3 | 1012.3 |
| 20260505080110 | 51 | 22 | 3.0 | 12.0 | 0.00 | 0.02 | 0.00 | 3 | 1012.3 |
| 20260505070603 | 51 | 319 | 2.0 | 6.0 | 0.00 | 0.02 | 0.00 | 3 | 1012.2 |
| 20260505070104 | 51 | 18 | 2.0 | 10.0 | 0.00 | 0.02 | 0.00 | 3 | 1012.1 |
| 20260505060603 | 51 | 324 | 2.0 | 5.0 | 0.00 | 0.02 | 0.00 | 3 | 1012.2 |
| 20260505060104 | 51 | 324 | 2.0 | 6.0 | 0.00 | 0.02 | 0.00 | 3 | 1012.0 |
| 20260505050603 | 51 | 332 | 2.0 | 3.0 | 0.00 | 0.02 | 0.00 | 3 | 1012.0 |
| 20260505050104 | 51 | 333 | 2.0 | 6.0 | 0.00 | 0.02 | 0.00 | 3 | 1011.9 |
| 20260505040603 | 51 | 26 | 0.0 | 1.0 | 0.00 | 0.02 | 0.00 | 3 | 1011.9 |
| 20260505040105 | 51 | 26 | 0.0 | 5.0 | 0.00 | 0.02 | 0.00 | 3 | 1012.0 |
| 20260505030603 | 51 | 44 | 1.0 | 3.0 | 0.00 | 0.02 | 0.00 | 3 | 1012.0 |
| 20260505030105 | 51 | 44 | 0.0 | 3.0 | 0.00 | 0.02 | 0.00 | 3 | 1012.0 |
| 20260505020104 | 51 | 69 | 1.0 | 3.0 | 0.00 | 0.02 | 0.00 | 3 | 1012.2 |
| 20260505000603 | 51 | 69 | 1.0 | 3.0 | 0.00 | 0.02 | 0.00 | 3 | 1012.9 |
| 20260505000105 | 51 | 69 | 1.0 | 5.0 | 0.00 | 0.02 | 0.00 | 3 | 1013.0 |
| 20260504230603 | 51 | 55 | 2.0 | 5.0 | 0.00 | 0.02 | 0.00 | 3 | 1013.8 |
| 20260504230105 | 51 | 55 | 0.0 | 5.0 | 0.00 | 0.02 | 0.00 | 3 | 1014.0 |
| 20260504220603 | 51 | 336 | 1.0 | 3.0 | 0.00 | 0.02 | 0.02 | 3 | 1014.5 |
| 20260504220105 | 51 | 336 | 1.0 | 3.0 | 0.00 | 0.02 | 0.02 | 3 | 1014.5 |
| 20260504210604 | 51 | 334 | 1.0 | 3.0 | 0.00 | 0.02 | 0.02 | 3 | 1014.5 |
| 20260504210108 | 51 | 333 | 1.0 | 5.0 | 0.00 | 0.02 | 0.02 | 3 | 1014.5 |